sensor_id;sensor_type;location;lat;lon;timestamp;P1;durP1;ratioP1;P2;durP2;ratioP2
14060;SDS011;7105;43.616;1.434;2023-04-15T00:00:26;22.73;;;4.40;;
14060;SDS011;7105;43.616;1.434;2023-04-15T00:02:53;17.97;;;4.37;;
14060;SDS011;7105;43.616;1.434;2023-04-15T00:05:19;24.27;;;4.33;;
14060;SDS011;7105;43.616;1.434;2023-04-15T00:07:45;20.33;;;4.57;;
14060;SDS011;7105;43.616;1.434;2023-04-15T00:10:11;27.03;;;5.43;;
14060;SDS011;7105;43.616;1.434;2023-04-15T00:12:38;30.90;;;5.13;;
14060;SDS011;7105;43.616;1.434;2023-04-15T00:15:05;22.83;;;4.63;;
14060;SDS011;7105;43.616;1.434;2023-04-15T00:17:33;27.50;;;5.37;;
14060;SDS011;7105;43.616;1.434;2023-04-15T00:19:59;22.13;;;3.80;;
14060;SDS011;7105;43.616;1.434;2023-04-15T00:22:25;27.03;;;4.90;;
14060;SDS011;7105;43.616;1.434;2023-04-15T00:24:52;27.13;;;5.10;;
14060;SDS011;7105;43.616;1.434;2023-04-15T00:27:17;27.47;;;4.80;;
14060;SDS011;7105;43.616;1.434;2023-04-15T00:29:43;27.73;;;5.50;;
14060;SDS011;7105;43.616;1.434;2023-04-15T00:32:09;20.27;;;4.13;;
14060;SDS011;7105;43.616;1.434;2023-04-15T00:34:35;29.40;;;5.80;;
14060;SDS011;7105;43.616;1.434;2023-04-15T00:37:01;26.40;;;5.10;;
14060;SDS011;7105;43.616;1.434;2023-04-15T00:39:26;15.00;;;3.80;;
14060;SDS011;7105;43.616;1.434;2023-04-15T00:41:52;21.70;;;4.60;;
14060;SDS011;7105;43.616;1.434;2023-04-15T00:44:19;24.27;;;4.60;;
14060;SDS011;7105;43.616;1.434;2023-04-15T00:46:45;29.10;;;4.90;;
14060;SDS011;7105;43.616;1.434;2023-04-15T00:49:12;24.90;;;5.20;;
14060;SDS011;7105;43.616;1.434;2023-04-15T00:51:38;25.07;;;4.63;;
14060;SDS011;7105;43.616;1.434;2023-04-15T00:54:04;29.30;;;4.80;;
14060;SDS011;7105;43.616;1.434;2023-04-15T00:56:30;27.60;;;4.93;;
14060;SDS011;7105;43.616;1.434;2023-04-15T00:59:00;22.80;;;4.30;;
14060;SDS011;7105;43.616;1.434;2023-04-15T01:01:26;19.07;;;3.80;;
14060;SDS011;7105;43.616;1.434;2023-04-15T01:03:55;19.40;;;4.50;;
14060;SDS011;7105;43.616;1.434;2023-04-15T01:06:22;16.27;;;4.93;;
14060;SDS011;7105;43.616;1.434;2023-04-15T01:08:48;18.20;;;4.87;;
14060;SDS011;7105;43.616;1.434;2023-04-15T01:11:14;18.80;;;4.00;;
14060;SDS011;7105;43.616;1.434;2023-04-15T01:13:41;19.03;;;3.77;;
14060;SDS011;7105;43.616;1.434;2023-04-15T01:16:07;23.23;;;5.17;;
14060;SDS011;7105;43.616;1.434;2023-04-15T01:18:33;21.37;;;4.67;;
14060;SDS011;7105;43.616;1.434;2023-04-15T01:21:01;24.13;;;4.80;;
14060;SDS011;7105;43.616;1.434;2023-04-15T01:23:29;23.00;;;5.30;;
14060;SDS011;7105;43.616;1.434;2023-04-15T01:25:54;24.70;;;4.60;;
14060;SDS011;7105;43.616;1.434;2023-04-15T01:28:21;22.20;;;3.97;;
14060;SDS011;7105;43.616;1.434;2023-04-15T01:30:47;25.93;;;5.60;;
14060;SDS011;7105;43.616;1.434;2023-04-15T01:33:13;22.17;;;5.00;;
14060;SDS011;7105;43.616;1.434;2023-04-15T01:35:39;16.80;;;4.07;;
14060;SDS011;7105;43.616;1.434;2023-04-15T01:38:07;15.80;;;3.23;;
14060;SDS011;7105;43.616;1.434;2023-04-15T01:40:34;15.23;;;3.27;;
14060;SDS011;7105;43.616;1.434;2023-04-15T01:43:00;14.13;;;3.37;;
14060;SDS011;7105;43.616;1.434;2023-04-15T01:45:26;14.83;;;2.53;;
14060;SDS011;7105;43.616;1.434;2023-04-15T01:47:52;12.60;;;3.30;;
14060;SDS011;7105;43.616;1.434;2023-04-15T01:50:18;18.10;;;3.43;;
14060;SDS011;7105;43.616;1.434;2023-04-15T01:52:45;11.00;;;2.20;;
14060;SDS011;7105;43.616;1.434;2023-04-15T01:55:13;14.43;;;2.70;;
14060;SDS011;7105;43.616;1.434;2023-04-15T01:57:39;11.10;;;2.43;;
14060;SDS011;7105;43.616;1.434;2023-04-15T02:00:05;9.03;;;1.87;;
14060;SDS011;7105;43.616;1.434;2023-04-15T02:02:35;11.33;;;2.70;;
14060;SDS011;7105;43.616;1.434;2023-04-15T02:05:01;13.67;;;2.57;;
14060;SDS011;7105;43.616;1.434;2023-04-15T02:07:28;12.17;;;2.30;;
14060;SDS011;7105;43.616;1.434;2023-04-15T02:09:56;8.10;;;2.00;;
14060;SDS011;7105;43.616;1.434;2023-04-15T02:12:22;12.63;;;2.37;;
14060;SDS011;7105;43.616;1.434;2023-04-15T02:14:47;8.80;;;2.33;;
14060;SDS011;7105;43.616;1.434;2023-04-15T02:17:13;14.07;;;3.00;;
14060;SDS011;7105;43.616;1.434;2023-04-15T02:19:39;15.47;;;2.87;;
14060;SDS011;7105;43.616;1.434;2023-04-15T02:22:05;14.73;;;3.03;;
14060;SDS011;7105;43.616;1.434;2023-04-15T02:24:32;10.57;;;2.83;;
14060;SDS011;7105;43.616;1.434;2023-04-15T02:26:58;14.27;;;2.90;;
14060;SDS011;7105;43.616;1.434;2023-04-15T02:29:25;11.73;;;3.00;;
14060;SDS011;7105;43.616;1.434;2023-04-15T02:31:51;13.20;;;2.70;;
14060;SDS011;7105;43.616;1.434;2023-04-15T02:34:17;16.30;;;2.80;;
14060;SDS011;7105;43.616;1.434;2023-04-15T02:36:42;15.43;;;2.30;;
14060;SDS011;7105;43.616;1.434;2023-04-15T02:39:08;11.07;;;2.40;;
14060;SDS011;7105;43.616;1.434;2023-04-15T02:41:33;15.13;;;2.70;;
14060;SDS011;7105;43.616;1.434;2023-04-15T02:43:59;12.50;;;2.63;;
14060;SDS011;7105;43.616;1.434;2023-04-15T02:46:25;14.87;;;2.77;;
14060;SDS011;7105;43.616;1.434;2023-04-15T02:48:51;14.47;;;2.63;;
14060;SDS011;7105;43.616;1.434;2023-04-15T02:51:20;12.90;;;2.97;;
14060;SDS011;7105;43.616;1.434;2023-04-15T02:53:47;13.67;;;2.97;;
14060;SDS011;7105;43.616;1.434;2023-04-15T02:56:13;14.87;;;2.70;;
14060;SDS011;7105;43.616;1.434;2023-04-15T02:58:41;9.60;;;1.77;;
14060;SDS011;7105;43.616;1.434;2023-04-15T03:01:07;16.20;;;3.03;;
14060;SDS011;7105;43.616;1.434;2023-04-15T03:03:33;14.83;;;3.30;;
14060;SDS011;7105;43.616;1.434;2023-04-15T03:05:59;17.87;;;3.60;;
14060;SDS011;7105;43.616;1.434;2023-04-15T03:08:25;14.10;;;2.77;;
14060;SDS011;7105;43.616;1.434;2023-04-15T03:10:51;15.10;;;2.77;;
14060;SDS011;7105;43.616;1.434;2023-04-15T03:13:17;12.67;;;2.40;;
14060;SDS011;7105;43.616;1.434;2023-04-15T03:15:45;8.07;;;2.30;;
14060;SDS011;7105;43.616;1.434;2023-04-15T03:18:11;11.97;;;2.30;;
14060;SDS011;7105;43.616;1.434;2023-04-15T03:20:37;9.30;;;1.73;;
14060;SDS011;7105;43.616;1.434;2023-04-15T03:23:02;7.67;;;1.53;;
14060;SDS011;7105;43.616;1.434;2023-04-15T03:25:28;7.23;;;1.73;;
14060;SDS011;7105;43.616;1.434;2023-04-15T03:27:54;5.70;;;1.20;;
14060;SDS011;7105;43.616;1.434;2023-04-15T03:30:19;4.43;;;1.80;;
14060;SDS011;7105;43.616;1.434;2023-04-15T03:32:45;5.03;;;1.33;;
14060;SDS011;7105;43.616;1.434;2023-04-15T03:35:11;7.20;;;1.57;;
14060;SDS011;7105;43.616;1.434;2023-04-15T03:37:37;3.10;;;1.47;;
14060;SDS011;7105;43.616;1.434;2023-04-15T03:40:02;10.67;;;1.73;;
14060;SDS011;7105;43.616;1.434;2023-04-15T03:42:28;6.43;;;2.07;;
14060;SDS011;7105;43.616;1.434;2023-04-15T03:44:54;4.17;;;1.60;;
14060;SDS011;7105;43.616;1.434;2023-04-15T03:47:19;5.97;;;1.57;;
14060;SDS011;7105;43.616;1.434;2023-04-15T03:49:45;8.67;;;2.10;;
14060;SDS011;7105;43.616;1.434;2023-04-15T03:52:11;6.67;;;2.00;;
14060;SDS011;7105;43.616;1.434;2023-04-15T03:54:37;8.67;;;1.70;;
14060;SDS011;7105;43.616;1.434;2023-04-15T03:57:02;9.20;;;1.97;;
14060;SDS011;7105;43.616;1.434;2023-04-15T03:59:28;13.13;;;2.27;;
14060;SDS011;7105;43.616;1.434;2023-04-15T04:01:54;10.77;;;2.40;;
14060;SDS011;7105;43.616;1.434;2023-04-15T04:04:19;10.40;;;2.20;;
14060;SDS011;7105;43.616;1.434;2023-04-15T04:06:45;10.27;;;2.40;;
14060;SDS011;7105;43.616;1.434;2023-04-15T04:09:11;11.17;;;2.30;;
14060;SDS011;7105;43.616;1.434;2023-04-15T04:11:36;11.77;;;2.20;;
14060;SDS011;7105;43.616;1.434;2023-04-15T04:14:02;12.27;;;2.17;;
14060;SDS011;7105;43.616;1.434;2023-04-15T04:16:28;7.93;;;2.10;;
14060;SDS011;7105;43.616;1.434;2023-04-15T04:18:53;8.67;;;1.80;;
14060;SDS011;7105;43.616;1.434;2023-04-15T04:21:19;10.73;;;1.70;;
14060;SDS011;7105;43.616;1.434;2023-04-15T04:23:45;15.10;;;2.53;;
14060;SDS011;7105;43.616;1.434;2023-04-15T04:26:11;7.10;;;2.20;;
14060;SDS011;7105;43.616;1.434;2023-04-15T04:28:36;11.67;;;1.90;;
14060;SDS011;7105;43.616;1.434;2023-04-15T04:31:05;10.80;;;2.33;;
14060;SDS011;7105;43.616;1.434;2023-04-15T04:33:31;13.77;;;2.50;;
14060;SDS011;7105;43.616;1.434;2023-04-15T04:35:57;13.90;;;2.50;;
14060;SDS011;7105;43.616;1.434;2023-04-15T04:38:23;14.07;;;2.10;;
14060;SDS011;7105;43.616;1.434;2023-04-15T04:40:48;11.40;;;2.60;;
14060;SDS011;7105;43.616;1.434;2023-04-15T04:43:14;13.37;;;2.73;;
14060;SDS011;7105;43.616;1.434;2023-04-15T04:45:40;10.00;;;2.53;;
14060;SDS011;7105;43.616;1.434;2023-04-15T04:48:06;13.20;;;2.53;;
14060;SDS011;7105;43.616;1.434;2023-04-15T04:50:33;16.37;;;2.80;;
14060;SDS011;7105;43.616;1.434;2023-04-15T04:52:59;13.73;;;2.83;;
14060;SDS011;7105;43.616;1.434;2023-04-15T04:55:25;15.53;;;2.87;;
14060;SDS011;7105;43.616;1.434;2023-04-15T04:57:51;10.97;;;2.97;;
14060;SDS011;7105;43.616;1.434;2023-04-15T05:00:17;13.43;;;2.90;;
14060;SDS011;7105;43.616;1.434;2023-04-15T05:02:43;16.07;;;3.00;;
14060;SDS011;7105;43.616;1.434;2023-04-15T05:05:09;11.67;;;2.70;;
14060;SDS011;7105;43.616;1.434;2023-04-15T05:07:36;9.73;;;2.70;;
14060;SDS011;7105;43.616;1.434;2023-04-15T05:10:02;15.77;;;2.47;;
14060;SDS011;7105;43.616;1.434;2023-04-15T05:12:28;14.53;;;2.70;;
14060;SDS011;7105;43.616;1.434;2023-04-15T05:14:54;15.73;;;2.70;;
14060;SDS011;7105;43.616;1.434;2023-04-15T05:17:19;10.97;;;2.73;;
14060;SDS011;7105;43.616;1.434;2023-04-15T05:19:45;9.30;;;2.67;;
14060;SDS011;7105;43.616;1.434;2023-04-15T05:22:11;11.60;;;2.63;;
14060;SDS011;7105;43.616;1.434;2023-04-15T05:24:37;14.13;;;2.40;;
14060;SDS011;7105;43.616;1.434;2023-04-15T05:27:02;12.57;;;2.57;;
14060;SDS011;7105;43.616;1.434;2023-04-15T05:29:28;12.43;;;2.70;;
14060;SDS011;7105;43.616;1.434;2023-04-15T05:31:54;11.43;;;2.10;;
14060;SDS011;7105;43.616;1.434;2023-04-15T05:34:20;10.73;;;2.13;;
14060;SDS011;7105;43.616;1.434;2023-04-15T05:36:46;10.57;;;2.20;;
14060;SDS011;7105;43.616;1.434;2023-04-15T05:39:12;10.60;;;2.20;;
14060;SDS011;7105;43.616;1.434;2023-04-15T05:41:37;8.30;;;1.90;;
14060;SDS011;7105;43.616;1.434;2023-04-15T05:44:03;8.77;;;1.93;;
14060;SDS011;7105;43.616;1.434;2023-04-15T05:46:29;11.17;;;1.93;;
14060;SDS011;7105;43.616;1.434;2023-04-15T05:48:54;12.77;;;1.90;;
14060;SDS011;7105;43.616;1.434;2023-04-15T05:51:20;10.63;;;1.83;;
14060;SDS011;7105;43.616;1.434;2023-04-15T05:53:46;7.13;;;1.97;;
14060;SDS011;7105;43.616;1.434;2023-04-15T05:56:11;7.27;;;1.53;;
14060;SDS011;7105;43.616;1.434;2023-04-15T05:58:37;8.77;;;1.93;;
14060;SDS011;7105;43.616;1.434;2023-04-15T06:01:03;10.53;;;1.60;;
14060;SDS011;7105;43.616;1.434;2023-04-15T06:03:29;7.80;;;2.20;;
14060;SDS011;7105;43.616;1.434;2023-04-15T06:05:55;6.03;;;1.30;;
14060;SDS011;7105;43.616;1.434;2023-04-15T06:08:21;8.33;;;1.47;;
14060;SDS011;7105;43.616;1.434;2023-04-15T06:10:46;5.50;;;1.37;;
14060;SDS011;7105;43.616;1.434;2023-04-15T06:13:15;8.63;;;1.47;;
14060;SDS011;7105;43.616;1.434;2023-04-15T06:15:41;9.47;;;1.90;;
14060;SDS011;7105;43.616;1.434;2023-04-15T06:18:07;4.50;;;1.23;;
14060;SDS011;7105;43.616;1.434;2023-04-15T06:20:32;5.10;;;1.30;;
14060;SDS011;7105;43.616;1.434;2023-04-15T06:22:58;3.43;;;1.03;;
14060;SDS011;7105;43.616;1.434;2023-04-15T06:25:24;6.37;;;1.47;;
14060;SDS011;7105;43.616;1.434;2023-04-15T06:27:50;4.17;;;1.10;;
14060;SDS011;7105;43.616;1.434;2023-04-15T06:30:15;5.07;;;1.13;;
14060;SDS011;7105;43.616;1.434;2023-04-15T06:32:41;9.80;;;1.30;;
14060;SDS011;7105;43.616;1.434;2023-04-15T06:35:07;1.47;;;0.53;;
14060;SDS011;7105;43.616;1.434;2023-04-15T06:37:33;3.03;;;0.80;;
14060;SDS011;7105;43.616;1.434;2023-04-15T06:39:58;2.70;;;0.73;;
14060;SDS011;7105;43.616;1.434;2023-04-15T06:42:24;2.00;;;0.80;;
14060;SDS011;7105;43.616;1.434;2023-04-15T06:44:50;1.77;;;0.83;;
14060;SDS011;7105;43.616;1.434;2023-04-15T06:47:16;3.80;;;1.10;;
14060;SDS011;7105;43.616;1.434;2023-04-15T06:49:41;2.97;;;1.07;;
14060;SDS011;7105;43.616;1.434;2023-04-15T06:52:07;4.80;;;1.00;;
14060;SDS011;7105;43.616;1.434;2023-04-15T06:54:34;5.27;;;1.00;;
14060;SDS011;7105;43.616;1.434;2023-04-15T06:57:00;5.63;;;1.27;;
14060;SDS011;7105;43.616;1.434;2023-04-15T06:59:25;5.33;;;1.20;;
14060;SDS011;7105;43.616;1.434;2023-04-15T07:01:51;4.50;;;1.00;;
14060;SDS011;7105;43.616;1.434;2023-04-15T07:04:17;2.43;;;0.80;;
14060;SDS011;7105;43.616;1.434;2023-04-15T07:06:43;3.17;;;1.10;;
14060;SDS011;7105;43.616;1.434;2023-04-15T07:09:11;6.10;;;1.20;;
14060;SDS011;7105;43.616;1.434;2023-04-15T07:11:37;3.10;;;1.13;;
14060;SDS011;7105;43.616;1.434;2023-04-15T07:14:03;5.23;;;1.40;;
14060;SDS011;7105;43.616;1.434;2023-04-15T07:16:28;4.77;;;1.47;;
14060;SDS011;7105;43.616;1.434;2023-04-15T07:18:57;6.67;;;1.37;;
14060;SDS011;7105;43.616;1.434;2023-04-15T07:21:23;6.53;;;1.37;;
14060;SDS011;7105;43.616;1.434;2023-04-15T07:23:49;2.03;;;0.83;;
14060;SDS011;7105;43.616;1.434;2023-04-15T07:26:15;3.20;;;1.20;;
14060;SDS011;7105;43.616;1.434;2023-04-15T07:28:41;3.93;;;1.33;;
14060;SDS011;7105;43.616;1.434;2023-04-15T07:31:07;6.30;;;1.30;;
14060;SDS011;7105;43.616;1.434;2023-04-15T07:33:33;5.50;;;1.13;;
14060;SDS011;7105;43.616;1.434;2023-04-15T07:35:58;6.10;;;1.83;;
14060;SDS011;7105;43.616;1.434;2023-04-15T07:38:24;8.03;;;1.70;;
14060;SDS011;7105;43.616;1.434;2023-04-15T07:40:50;13.67;;;1.67;;
14060;SDS011;7105;43.616;1.434;2023-04-15T07:43:16;7.90;;;1.60;;
14060;SDS011;7105;43.616;1.434;2023-04-15T07:45:42;6.53;;;1.40;;
14060;SDS011;7105;43.616;1.434;2023-04-15T07:48:08;8.33;;;1.60;;
14060;SDS011;7105;43.616;1.434;2023-04-15T07:50:34;3.70;;;1.30;;
14060;SDS011;7105;43.616;1.434;2023-04-15T07:52:59;5.33;;;1.27;;
14060;SDS011;7105;43.616;1.434;2023-04-15T07:55:25;5.20;;;1.27;;
14060;SDS011;7105;43.616;1.434;2023-04-15T07:57:51;7.43;;;1.50;;
14060;SDS011;7105;43.616;1.434;2023-04-15T08:00:16;8.80;;;1.80;;
14060;SDS011;7105;43.616;1.434;2023-04-15T08:02:42;5.13;;;1.57;;
14060;SDS011;7105;43.616;1.434;2023-04-15T08:05:08;3.37;;;1.37;;
14060;SDS011;7105;43.616;1.434;2023-04-15T08:07:37;5.87;;;1.50;;
14060;SDS011;7105;43.616;1.434;2023-04-15T08:10:04;6.67;;;1.80;;
14060;SDS011;7105;43.616;1.434;2023-04-15T08:12:30;7.87;;;1.60;;
14060;SDS011;7105;43.616;1.434;2023-04-15T08:14:56;7.43;;;1.50;;
14060;SDS011;7105;43.616;1.434;2023-04-15T08:17:21;6.60;;;1.60;;
14060;SDS011;7105;43.616;1.434;2023-04-15T08:19:47;6.57;;;1.50;;
14060;SDS011;7105;43.616;1.434;2023-04-15T08:22:13;5.27;;;1.77;;
14060;SDS011;7105;43.616;1.434;2023-04-15T08:24:39;6.33;;;1.10;;
14060;SDS011;7105;43.616;1.434;2023-04-15T08:27:05;7.20;;;1.80;;
14060;SDS011;7105;43.616;1.434;2023-04-15T08:29:31;11.30;;;1.73;;
14060;SDS011;7105;43.616;1.434;2023-04-15T08:32:00;7.07;;;1.63;;
14060;SDS011;7105;43.616;1.434;2023-04-15T08:34:26;6.33;;;1.50;;
14060;SDS011;7105;43.616;1.434;2023-04-15T08:36:53;5.10;;;1.70;;
14060;SDS011;7105;43.616;1.434;2023-04-15T08:39:19;7.97;;;1.50;;
14060;SDS011;7105;43.616;1.434;2023-04-15T08:42:07;12.57;;;1.87;;
14060;SDS011;7105;43.616;1.434;2023-04-15T08:44:35;5.03;;;1.77;;
14060;SDS011;7105;43.616;1.434;2023-04-15T08:47:02;4.47;;;1.63;;
14060;SDS011;7105;43.616;1.434;2023-04-15T08:49:31;3.50;;;1.40;;
14060;SDS011;7105;43.616;1.434;2023-04-15T08:51:57;5.63;;;1.70;;
14060;SDS011;7105;43.616;1.434;2023-04-15T08:54:24;7.33;;;1.50;;
14060;SDS011;7105;43.616;1.434;2023-04-15T08:56:51;4.50;;;1.57;;
14060;SDS011;7105;43.616;1.434;2023-04-15T08:59:18;5.57;;;1.70;;
14060;SDS011;7105;43.616;1.434;2023-04-15T09:01:45;8.37;;;1.80;;
14060;SDS011;7105;43.616;1.434;2023-04-15T09:04:12;6.73;;;1.70;;
14060;SDS011;7105;43.616;1.434;2023-04-15T09:06:38;6.13;;;1.90;;
14060;SDS011;7105;43.616;1.434;2023-04-15T09:09:05;7.07;;;1.50;;
14060;SDS011;7105;43.616;1.434;2023-04-15T09:11:31;7.83;;;2.10;;
14060;SDS011;7105;43.616;1.434;2023-04-15T09:13:57;6.63;;;1.80;;
14060;SDS011;7105;43.616;1.434;2023-04-15T09:16:22;8.50;;;2.17;;
14060;SDS011;7105;43.616;1.434;2023-04-15T09:18:48;8.63;;;2.07;;
14060;SDS011;7105;43.616;1.434;2023-04-15T09:21:15;7.27;;;1.30;;
14060;SDS011;7105;43.616;1.434;2023-04-15T09:23:58;8.33;;;1.60;;
14060;SDS011;7105;43.616;1.434;2023-04-15T09:26:31;8.70;;;1.97;;
14060;SDS011;7105;43.616;1.434;2023-04-15T09:29:03;6.23;;;1.87;;
14060;SDS011;7105;43.616;1.434;2023-04-15T09:31:33;6.30;;;1.30;;
14060;SDS011;7105;43.616;1.434;2023-04-15T09:34:00;4.07;;;1.90;;
14060;SDS011;7105;43.616;1.434;2023-04-15T09:36:26;5.87;;;1.70;;
14060;SDS011;7105;43.616;1.434;2023-04-15T09:38:56;5.23;;;1.60;;
14060;SDS011;7105;43.616;1.434;2023-04-15T09:41:22;8.20;;;1.57;;
14060;SDS011;7105;43.616;1.434;2023-04-15T09:43:49;6.27;;;1.83;;
14060;SDS011;7105;43.616;1.434;2023-04-15T09:46:15;6.97;;;1.43;;
14060;SDS011;7105;43.616;1.434;2023-04-15T09:48:41;5.30;;;2.07;;
14060;SDS011;7105;43.616;1.434;2023-04-15T09:51:06;5.43;;;1.90;;
14060;SDS011;7105;43.616;1.434;2023-04-15T09:53:33;6.67;;;1.60;;
14060;SDS011;7105;43.616;1.434;2023-04-15T09:56:00;6.07;;;1.93;;
14060;SDS011;7105;43.616;1.434;2023-04-15T09:58:27;4.47;;;1.70;;
14060;SDS011;7105;43.616;1.434;2023-04-15T10:00:58;4.83;;;1.63;;
14060;SDS011;7105;43.616;1.434;2023-04-15T10:03:29;7.13;;;1.63;;
14060;SDS011;7105;43.616;1.434;2023-04-15T10:05:58;5.57;;;1.53;;
14060;SDS011;7105;43.616;1.434;2023-04-15T10:08:29;8.20;;;1.80;;
14060;SDS011;7105;43.616;1.434;2023-04-15T10:10:56;8.07;;;1.80;;
14060;SDS011;7105;43.616;1.434;2023-04-15T10:13:23;7.00;;;2.13;;
14060;SDS011;7105;43.616;1.434;2023-04-15T10:15:51;4.50;;;1.20;;
14060;SDS011;7105;43.616;1.434;2023-04-15T10:18:37;6.17;;;1.90;;
14060;SDS011;7105;43.616;1.434;2023-04-15T10:21:07;2.97;;;1.37;;
14060;SDS011;7105;43.616;1.434;2023-04-15T10:23:34;5.80;;;1.50;;
14060;SDS011;7105;43.616;1.434;2023-04-15T10:26:00;4.47;;;1.43;;
14060;SDS011;7105;43.616;1.434;2023-04-15T10:28:28;6.57;;;1.90;;
14060;SDS011;7105;43.616;1.434;2023-04-15T10:30:54;3.90;;;0.90;;
14060;SDS011;7105;43.616;1.434;2023-04-15T10:33:22;8.17;;;1.50;;
14060;SDS011;7105;43.616;1.434;2023-04-15T10:35:49;3.77;;;1.20;;
14060;SDS011;7105;43.616;1.434;2023-04-15T10:41:42;4.10;;;1.40;;
14060;SDS011;7105;43.616;1.434;2023-04-15T10:43:55;6.13;;;1.47;;
14060;SDS011;7105;43.616;1.434;2023-04-15T10:49:46;5.03;;;1.50;;
14060;SDS011;7105;43.616;1.434;2023-04-15T10:51:56;5.93;;;1.53;;
14060;SDS011;7105;43.616;1.434;2023-04-15T10:56:50;4.00;;;1.40;;
14060;SDS011;7105;43.616;1.434;2023-04-15T10:59:16;3.07;;;1.33;;
14060;SDS011;7105;43.616;1.434;2023-04-15T11:01:49;2.63;;;0.77;;
14060;SDS011;7105;43.616;1.434;2023-04-15T11:05:02;4.83;;;1.60;;
14060;SDS011;7105;43.616;1.434;2023-04-15T11:10:03;4.93;;;1.43;;
14060;SDS011;7105;43.616;1.434;2023-04-15T11:12:38;4.50;;;1.77;;
14060;SDS011;7105;43.616;1.434;2023-04-15T11:17:52;4.67;;;1.40;;
14060;SDS011;7105;43.616;1.434;2023-04-15T11:20:21;3.27;;;1.10;;
14060;SDS011;7105;43.616;1.434;2023-04-15T11:22:48;3.97;;;1.20;;
14060;SDS011;7105;43.616;1.434;2023-04-15T11:25:24;3.50;;;1.17;;
14060;SDS011;7105;43.616;1.434;2023-04-15T11:27:51;3.03;;;1.13;;
14060;SDS011;7105;43.616;1.434;2023-04-15T11:30:18;6.47;;;1.50;;
14060;SDS011;7105;43.616;1.434;2023-04-15T11:32:46;3.67;;;1.20;;
14060;SDS011;7105;43.616;1.434;2023-04-15T11:35:16;5.37;;;1.60;;
14060;SDS011;7105;43.616;1.434;2023-04-15T11:37:43;5.23;;;1.17;;
14060;SDS011;7105;43.616;1.434;2023-04-15T11:40:13;4.07;;;1.10;;
14060;SDS011;7105;43.616;1.434;2023-04-15T11:42:41;4.87;;;1.23;;
14060;SDS011;7105;43.616;1.434;2023-04-15T11:45:12;4.57;;;1.10;;
14060;SDS011;7105;43.616;1.434;2023-04-15T11:47:40;6.07;;;1.67;;
14060;SDS011;7105;43.616;1.434;2023-04-15T11:50:16;6.13;;;1.43;;
14060;SDS011;7105;43.616;1.434;2023-04-15T11:55:23;6.63;;;1.40;;
14060;SDS011;7105;43.616;1.434;2023-04-15T11:58:11;4.33;;;1.30;;
14060;SDS011;7105;43.616;1.434;2023-04-15T12:00:46;4.87;;;1.50;;
14060;SDS011;7105;43.616;1.434;2023-04-15T12:03:27;3.10;;;1.10;;
14060;SDS011;7105;43.616;1.434;2023-04-15T12:08:49;4.87;;;1.17;;
14060;SDS011;7105;43.616;1.434;2023-04-15T12:11:26;3.83;;;1.27;;
14060;SDS011;7105;43.616;1.434;2023-04-15T12:13:56;4.73;;;1.40;;
14060;SDS011;7105;43.616;1.434;2023-04-15T12:16:24;6.87;;;1.40;;
14060;SDS011;7105;43.616;1.434;2023-04-15T12:18:53;2.73;;;0.77;;
14060;SDS011;7105;43.616;1.434;2023-04-15T12:21:21;7.07;;;1.50;;
14060;SDS011;7105;43.616;1.434;2023-04-15T12:26:14;2.90;;;1.00;;
14060;SDS011;7105;43.616;1.434;2023-04-15T12:28:41;6.60;;;1.73;;
14060;SDS011;7105;43.616;1.434;2023-04-15T12:31:07;4.57;;;1.33;;
14060;SDS011;7105;43.616;1.434;2023-04-15T12:33:34;3.57;;;1.70;;
14060;SDS011;7105;43.616;1.434;2023-04-15T12:36:00;3.20;;;1.00;;
14060;SDS011;7105;43.616;1.434;2023-04-15T12:38:25;2.20;;;1.10;;
14060;SDS011;7105;43.616;1.434;2023-04-15T12:40:52;3.13;;;1.37;;
14060;SDS011;7105;43.616;1.434;2023-04-15T12:43:18;3.43;;;1.40;;
14060;SDS011;7105;43.616;1.434;2023-04-15T12:45:43;2.67;;;1.10;;
14060;SDS011;7105;43.616;1.434;2023-04-15T12:48:09;4.27;;;1.10;;
14060;SDS011;7105;43.616;1.434;2023-04-15T12:50:35;4.50;;;1.33;;
14060;SDS011;7105;43.616;1.434;2023-04-15T12:53:01;5.13;;;1.53;;
14060;SDS011;7105;43.616;1.434;2023-04-15T12:55:27;4.73;;;1.40;;
14060;SDS011;7105;43.616;1.434;2023-04-15T12:57:54;3.50;;;1.00;;
14060;SDS011;7105;43.616;1.434;2023-04-15T13:00:23;3.97;;;1.23;;
14060;SDS011;7105;43.616;1.434;2023-04-15T13:02:48;3.83;;;1.23;;
14060;SDS011;7105;43.616;1.434;2023-04-15T13:05:14;3.73;;;1.30;;
14060;SDS011;7105;43.616;1.434;2023-04-15T13:07:43;4.20;;;1.20;;
14060;SDS011;7105;43.616;1.434;2023-04-15T13:10:08;4.40;;;1.00;;
14060;SDS011;7105;43.616;1.434;2023-04-15T13:12:34;2.93;;;1.20;;
14060;SDS011;7105;43.616;1.434;2023-04-15T13:15:04;3.57;;;1.10;;
14060;SDS011;7105;43.616;1.434;2023-04-15T13:17:30;6.40;;;1.60;;
14060;SDS011;7105;43.616;1.434;2023-04-15T13:19:55;4.07;;;1.40;;
14060;SDS011;7105;43.616;1.434;2023-04-15T13:22:21;4.00;;;1.33;;
14060;SDS011;7105;43.616;1.434;2023-04-15T13:24:47;3.27;;;1.20;;
14060;SDS011;7105;43.616;1.434;2023-04-15T13:27:13;4.67;;;1.37;;
14060;SDS011;7105;43.616;1.434;2023-04-15T13:29:39;2.90;;;1.03;;
14060;SDS011;7105;43.616;1.434;2023-04-15T13:32:05;2.80;;;1.30;;
14060;SDS011;7105;43.616;1.434;2023-04-15T13:34:31;3.63;;;1.37;;
14060;SDS011;7105;43.616;1.434;2023-04-15T13:36:56;2.57;;;1.03;;
14060;SDS011;7105;43.616;1.434;2023-04-15T13:39:22;3.60;;;1.20;;
14060;SDS011;7105;43.616;1.434;2023-04-15T13:41:48;2.53;;;1.00;;
14060;SDS011;7105;43.616;1.434;2023-04-15T13:44:13;2.10;;;1.00;;
14060;SDS011;7105;43.616;1.434;2023-04-15T13:46:39;2.97;;;1.00;;
14060;SDS011;7105;43.616;1.434;2023-04-15T13:49:08;5.50;;;1.60;;
14060;SDS011;7105;43.616;1.434;2023-04-15T13:51:33;2.87;;;1.23;;
14060;SDS011;7105;43.616;1.434;2023-04-15T13:54:00;4.93;;;1.50;;
14060;SDS011;7105;43.616;1.434;2023-04-15T13:56:26;3.67;;;1.17;;
14060;SDS011;7105;43.616;1.434;2023-04-15T13:58:53;2.17;;;1.20;;
14060;SDS011;7105;43.616;1.434;2023-04-15T14:01:22;4.60;;;1.70;;
14060;SDS011;7105;43.616;1.434;2023-04-15T14:03:49;2.57;;;0.80;;
14060;SDS011;7105;43.616;1.434;2023-04-15T14:06:15;3.37;;;1.20;;
14060;SDS011;7105;43.616;1.434;2023-04-15T14:08:40;4.43;;;1.10;;
14060;SDS011;7105;43.616;1.434;2023-04-15T14:11:06;2.93;;;1.47;;
14060;SDS011;7105;43.616;1.434;2023-04-15T14:13:32;1.83;;;1.03;;
14060;SDS011;7105;43.616;1.434;2023-04-15T14:15:57;4.50;;;0.90;;
14060;SDS011;7105;43.616;1.434;2023-04-15T14:18:23;5.30;;;0.97;;
14060;SDS011;7105;43.616;1.434;2023-04-15T14:20:49;2.47;;;1.13;;
14060;SDS011;7105;43.616;1.434;2023-04-15T14:23:15;1.63;;;0.73;;
14060;SDS011;7105;43.616;1.434;2023-04-15T14:25:41;2.23;;;0.73;;
14060;SDS011;7105;43.616;1.434;2023-04-15T14:28:07;2.00;;;0.60;;
14060;SDS011;7105;43.616;1.434;2023-04-15T14:30:32;2.40;;;1.27;;
14060;SDS011;7105;43.616;1.434;2023-04-15T14:32:58;2.17;;;1.33;;
14060;SDS011;7105;43.616;1.434;2023-04-15T14:35:24;3.90;;;1.50;;
14060;SDS011;7105;43.616;1.434;2023-04-15T14:37:51;3.20;;;1.10;;
14060;SDS011;7105;43.616;1.434;2023-04-15T14:40:20;3.07;;;1.13;;
14060;SDS011;7105;43.616;1.434;2023-04-15T14:42:46;2.90;;;1.10;;
14060;SDS011;7105;43.616;1.434;2023-04-15T14:45:12;2.00;;;0.93;;
14060;SDS011;7105;43.616;1.434;2023-04-15T14:47:37;3.47;;;1.20;;
14060;SDS011;7105;43.616;1.434;2023-04-15T14:50:03;2.63;;;0.80;;
14060;SDS011;7105;43.616;1.434;2023-04-15T14:52:29;2.63;;;0.80;;
14060;SDS011;7105;43.616;1.434;2023-04-15T14:55:02;3.40;;;0.93;;
14060;SDS011;7105;43.616;1.434;2023-04-15T14:57:37;2.53;;;1.17;;
14060;SDS011;7105;43.616;1.434;2023-04-15T15:00:03;5.70;;;1.40;;
14060;SDS011;7105;43.616;1.434;2023-04-15T15:02:32;1.83;;;1.20;;
14060;SDS011;7105;43.616;1.434;2023-04-15T15:04:59;2.10;;;1.00;;
14060;SDS011;7105;43.616;1.434;2023-04-15T15:07:25;3.97;;;1.17;;
14060;SDS011;7105;43.616;1.434;2023-04-15T15:09:51;2.47;;;1.20;;
14060;SDS011;7105;43.616;1.434;2023-04-15T15:12:17;3.87;;;1.30;;
14060;SDS011;7105;43.616;1.434;2023-04-15T15:14:43;3.27;;;1.30;;
14060;SDS011;7105;43.616;1.434;2023-04-15T15:17:09;2.13;;;0.90;;